Time;durP1;ratioP1;P1;durP2;ratioP2;P2;SDS_P1;SDS_P2;PMS_P1;PMS_P2;Temp;Humidity;BMP_temperature;BMP_pressure;BME280_temperature;BME280_humidity;BME280_pressure;Samples;Min_cycle;Max_cycle;Signal;HPM_P1;HPM_P2
2022/07/28 00:00:54;;;;;;;3.85;1.70;;;19.80;79.10;;;;;;5003619;28;20120;-75
2022/07/28 00:03:22;;;;;;;2.15;1.58;;;19.80;79.30;;;;;;5005105;28;20543;-75
2022/07/28 00:05:48;;;;;;;3.28;1.80;;;19.80;79.60;;;;;;5002526;28;20041;-76
2022/07/28 00:08:22;;;;;;;3.47;2.03;;;19.70;79.60;;;;;;5005117;28;20088;-76
2022/07/28 00:10:54;;;;;;;3.22;1.65;;;19.70;79.80;;;;;;5000984;28;20077;-76
2022/07/28 00:13:21;;;;;;;5.63;2.05;;;19.70;79.70;;;;;;5006510;28;20374;-75
2022/07/28 00:15:52;;;;;;;4.18;1.60;;;19.70;79.50;;;;;;5001325;28;20036;-76
2022/07/28 00:18:18;;;;;;;4.18;1.90;;;19.60;79.90;;;;;;5005567;28;20113;-75
2022/07/28 00:20:43;;;;;;;5.70;1.80;;;19.60;80.10;;;;;;5004293;28;20104;-77
2022/07/28 00:23:09;;;;;;;4.97;1.67;;;19.60;80.30;;;;;;5006346;28;20368;-75
2022/07/28 00:25:35;;;;;;;6.20;1.70;;;19.60;80.30;;;;;;5006303;28;20037;-75
2022/07/28 00:28:00;;;;;;;2.90;1.88;;;19.60;80.00;;;;;;5003181;28;20429;-75
2022/07/28 00:30:26;;;;;;;3.33;1.80;;;19.50;79.60;;;;;;5001215;28;20105;-75
2022/07/28 00:32:51;;;;;;;5.82;1.80;;;19.50;79.50;;;;;;5006414;28;20382;-76
2022/07/28 00:35:17;;;;;;;5.57;2.25;;;19.50;79.90;;;;;;5003446;28;20029;-76
2022/07/28 00:37:42;;;;;;;1.80;1.63;;;19.50;80.30;;;;;;5003388;28;20029;-75
2022/07/28 00:40:14;;;;;;;3.33;1.77;;;19.50;80.80;;;;;;5004566;28;20552;-75
2022/07/28 00:42:46;;;;;;;3.55;1.83;;;19.40;81.20;;;;;;5006455;28;20062;-76
2022/07/28 00:45:17;;;;;;;2.65;1.90;;;19.30;81.40;;;;;;5007049;28;20052;-75
2022/07/28 00:47:46;;;;;;;4.53;1.92;;;19.30;81.80;;;;;;5010314;28;20523;-76
2022/07/28 00:50:11;;;;;;;3.45;2.08;;;19.30;82.00;;;;;;5012353;28;20046;-74
2022/07/28 00:52:40;;;;;;;4.35;1.80;;;19.30;82.10;;;;;;5011550;28;20034;-76
2022/07/28 00:55:15;;;;;;;3.10;1.75;;;19.30;82.40;;;;;;5030582;28;20176;-76
2022/07/28 00:57:44;;;;;;;3.47;1.70;;;19.20;82.50;;;;;;5009863;28;20509;-76
2022/07/28 01:00:10;;;;;;;3.10;1.50;;;19.20;82.50;;;;;;5009301;28;20117;-76
2022/07/28 01:02:45;;;;;;;5.00;1.42;;;19.10;82.40;;;;;;5008193;28;20037;-74
2022/07/28 01:05:13;;;;;;;3.17;1.63;;;19.10;82.60;;;;;;5013376;28;20124;-75
2022/07/28 01:08:00;;;;;;;2.50;1.83;;;19.10;82.50;;;;;;5009570;28;20026;-76
2022/07/28 01:10:44;;;;;;;7.93;1.80;;;19.10;82.50;;;;;;5008786;28;20026;-75
2022/07/28 01:13:25;;;;;;;2.57;1.63;;;19.10;82.20;;;;;;5010481;28;20087;-74
2022/07/28 01:16:04;;;;;;;4.20;1.60;;;19.10;82.00;;;;;;5008804;28;20084;-75
2022/07/28 01:18:51;;;;;;;3.78;1.80;;;19.00;81.90;;;;;;5009152;28;20402;-75
2022/07/28 01:21:24;;;;;;;2.03;1.33;;;19.00;81.90;;;;;;5009423;28;20026;-76
2022/07/28 01:24:09;;;;;;;3.20;1.67;;;18.90;82.20;;;;;;5010218;28;20501;-76
2022/07/28 01:26:58;;;;;;;5.47;2.13;;;18.90;82.20;;;;;;5011300;28;20087;-75
2022/07/28 01:30:07;;;;;;;7.28;2.08;;;18.80;82.30;;;;;;5009058;28;20475;-75
2022/07/28 01:32:57;;;;;;;4.57;1.67;;;18.70;82.40;;;;;;5009634;28;20184;-75
2022/07/28 01:35:27;;;;;;;5.00;1.80;;;18.80;82.50;;;;;;5010712;28;20064;-75
2022/07/28 01:38:02;;;;;;;3.05;1.83;;;18.70;82.40;;;;;;5010114;28;20043;-75
2022/07/28 01:40:32;;;;;;;2.38;1.70;;;18.70;82.30;;;;;;5008256;28;20085;-76
2022/07/28 01:43:02;;;;;;;3.28;1.70;;;18.50;82.20;;;;;;5010187;28;20522;-75
2022/07/28 01:45:33;;;;;;;3.97;1.67;;;18.50;82.30;;;;;;5008352;28;20022;-75
2022/07/28 01:48:00;;;;;;;3.05;1.58;;;18.50;82.50;;;;;;5009099;28;20045;-75
2022/07/28 01:50:34;;;;;;;6.22;2.10;;;18.50;82.60;;;;;;5010051;28;20579;-75
2022/07/28 01:53:01;;;;;;;7.03;1.95;;;18.40;82.60;;;;;;5008511;28;20032;-75
2022/07/28 01:55:28;;;;;;;2.90;1.98;;;18.40;82.70;;;;;;5007405;28;20127;-75
2022/07/28 01:57:56;;;;;;;6.38;2.17;;;18.40;82.90;;;;;;5005012;28;20399;-75
2022/07/28 02:00:24;;;;;;;4.28;1.90;;;18.30;82.80;;;;;;5004828;28;20092;-75
2022/07/28 02:02:51;;;;;;;3.95;1.60;;;18.20;82.90;;;;;;5007995;28;20318;-75
2022/07/28 02:05:19;;;;;;;1.95;1.75;;;18.10;83.10;;;;;;5003253;28;20065;-75
2022/07/28 02:07:52;;;;;;;3.33;2.17;;;18.10;83.40;;;;;;4997980;28;20026;-75
2022/07/28 02:10:22;;;;;;;4.72;2.33;;;18.00;83.60;;;;;;4999879;28;20045;-75
2022/07/28 02:12:51;;;;;;;3.25;2.05;;;18.00;83.80;;;;;;5007566;28;20489;-76
2022/07/28 02:15:25;;;;;;;5.05;2.03;;;17.90;84.20;;;;;;5001395;28;20046;-76
2022/07/28 02:17:52;;;;;;;2.75;1.92;;;17.90;85.40;;;;;;4992885;28;20495;-75
2022/07/28 02:20:19;;;;;;;3.47;2.10;;;17.90;85.90;;;;;;5005308;28;20457;-76
2022/07/28 02:22:52;;;;;;;5.50;2.35;;;17.90;86.20;;;;;;5006748;28;20414;-76
2022/07/28 02:25:20;;;;;;;5.65;2.10;;;17.90;86.30;;;;;;5006951;22;20528;-76
2022/07/28 02:28:01;;;;;;;5.68;2.10;;;17.90;86.50;;;;;;4963574;28;20018;-76
2022/07/28 02:30:34;;;;;;;4.25;2.13;;;17.80;86.50;;;;;;4968010;28;20164;-76
2022/07/28 02:33:31;;;;;;;4.05;1.95;;;17.80;86.70;;;;;;4965437;28;20027;-74
2022/07/28 02:36:11;;;;;;;4.78;2.03;;;17.80;87.00;;;;;;4954896;28;20031;-75
2022/07/28 02:38:45;;;;;;;4.20;2.00;;;17.80;87.50;;;;;;4968637;28;20121;-76
2022/07/28 02:41:28;;;;;;;6.38;2.45;;;17.80;86.90;;;;;;4967190;28;20031;-76
2022/07/28 02:43:58;;;;;;;5.70;2.60;;;17.70;86.80;;;;;;4966869;28;20495;-74
2022/07/28 02:46:37;;;;;;;5.45;2.65;;;17.70;86.90;;;;;;4967162;28;20484;-76
2022/07/28 02:49:09;;;;;;;4.63;2.63;;;17.70;86.90;;;;;;4969154;28;20067;-75
2022/07/28 02:51:45;;;;;;;4.53;2.63;;;17.70;86.70;;;;;;4962467;28;20027;-75
2022/07/28 02:54:11;;;;;;;3.13;2.00;;;17.70;86.70;;;;;;4970458;28;20027;-74
2022/07/28 02:56:40;;;;;;;3.78;2.00;;;17.70;87.30;;;;;;4968849;28;20081;-73
2022/07/28 02:59:09;;;;;;;5.85;2.30;;;17.70;86.70;;;;;;4959085;28;20587;-75
2022/07/28 03:01:35;;;;;;;5.65;2.13;;;17.70;86.70;;;;;;4968563;28;20019;-75
2022/07/28 03:04:14;;;;;;;5.80;2.08;;;17.60;86.70;;;;;;4971634;28;20022;-75
2022/07/28 03:06:40;;;;;;;3.78;2.20;;;17.60;86.70;;;;;;4965174;28;20513;-75
2022/07/28 03:09:08;;;;;;;4.53;2.28;;;17.60;86.80;;;;;;4968163;28;20031;-74
2022/07/28 03:11:50;;;;;;;4.35;2.22;;;17.50;86.90;;;;;;4964733;28;20030;-75
2022/07/28 03:14:21;;;;;;;5.85;2.47;;;17.40;87.00;;;;;;4980954;28;20033;-75
2022/07/28 03:16:53;;;;;;;4.82;2.80;;;17.40;87.20;;;;;;4965073;28;20542;-73
2022/07/28 03:19:21;;;;;;;5.28;2.80;;;17.40;87.40;;;;;;4966145;28;20105;-76
2022/07/28 03:21:53;;;;;;;6.55;2.88;;;17.40;87.40;;;;;;4967416;28;20399;-76
2022/07/28 03:24:41;;;;;;;5.47;2.13;;;17.30;87.40;;;;;;4967562;28;20030;-76
2022/07/28 03:27:39;;;;;;;5.40;2.60;;;17.30;87.80;;;;;;4979793;28;20042;-76
2022/07/28 03:30:09;;;;;;;2.78;2.22;;;17.20;87.80;;;;;;4970114;28;20062;-73
2022/07/28 03:32:38;;;;;;;5.25;2.88;;;17.20;88.10;;;;;;4967507;28;20027;-76
2022/07/28 03:35:05;;;;;;;4.85;2.88;;;17.20;88.20;;;;;;4968096;28;20019;-72
2022/07/28 03:37:45;;;;;;;3.78;2.70;;;17.20;88.30;;;;;;4969414;28;20023;-74
2022/07/28 03:40:12;;;;;;;3.22;2.70;;;17.20;88.40;;;;;;4966264;28;20034;-76
2022/07/28 03:42:42;;;;;;;3.08;2.60;;;17.10;88.60;;;;;;4966207;28;20086;-75
2022/07/28 03:45:09;;;;;;;4.40;3.03;;;17.10;88.60;;;;;;4968316;28;20037;-76
2022/07/28 03:47:34;;;;;;;3.72;2.22;;;17.00;88.80;;;;;;4967273;28;20419;-74
2022/07/28 03:50:03;;;;;;;6.68;2.90;;;17.10;89.00;;;;;;4963349;28;20034;-75
2022/07/28 03:52:29;;;;;;;3.63;2.47;;;17.00;89.00;;;;;;4965242;28;20037;-75
2022/07/28 03:54:55;;;;;;;3.55;2.80;;;17.00;89.00;;;;;;4962154;28;20484;-74
2022/07/28 03:57:24;;;;;;;4.97;2.72;;;17.00;89.10;;;;;;4966134;28;20031;-76
2022/07/28 03:59:53;;;;;;;6.07;2.45;;;17.00;89.20;;;;;;4967898;28;20027;-76
2022/07/28 04:02:18;;;;;;;6.03;2.65;;;17.00;89.40;;;;;;4963260;28;20031;-76
2022/07/28 04:04:44;;;;;;;5.60;2.65;;;17.00;89.50;;;;;;4965006;28;20050;-76
2022/07/28 04:07:10;;;;;;;2.88;2.58;;;17.00;89.60;;;;;;4964773;28;20144;-76
2022/07/28 04:09:38;;;;;;;5.45;3.10;;;16.90;89.60;;;;;;4967538;28;20061;-75
2022/07/28 04:12:04;;;;;;;7.15;2.83;;;16.90;89.70;;;;;;4962039;28;20377;-75
2022/07/28 04:14:32;;;;;;;7.50;3.58;;;16.90;89.80;;;;;;4961697;28;20034;-75
2022/07/28 04:16:58;;;;;;;3.90;2.78;;;17.00;89.90;;;;;;4961647;28;20085;-75
2022/07/28 04:19:24;;;;;;;3.40;2.88;;;16.90;89.90;;;;;;4968584;28;20031;-75
2022/07/28 04:21:49;;;;;;;4.03;2.75;;;16.90;90.00;;;;;;4967873;28;20439;-75
2022/07/28 04:24:18;;;;;;;6.00;2.75;;;17.00;90.00;;;;;;4969137;28;20062;-76
2022/07/28 04:26:44;;;;;;;5.47;3.20;;;16.90;90.00;;;;;;4972220;28;20097;-74
2022/07/28 04:29:22;;;;;;;4.53;3.00;;;16.90;90.00;;;;;;4975269;28;20022;-77
2022/07/28 04:31:47;;;;;;;5.85;2.97;;;16.90;90.10;;;;;;4969085;28;20034;-76
2022/07/28 04:34:13;;;;;;;5.85;2.92;;;16.90;90.10;;;;;;4965869;28;20096;-76
2022/07/28 04:36:45;;;;;;;3.67;2.90;;;16.90;90.20;;;;;;4968707;28;20483;-76
2022/07/28 04:39:10;;;;;;;8.20;3.33;;;16.80;90.20;;;;;;4976390;28;20084;-75
2022/07/28 04:41:38;;;;;;;5.15;3.08;;;16.80;90.20;;;;;;4977341;28;20073;-77
2022/07/28 04:44:04;;;;;;;4.38;3.25;;;16.90;90.30;;;;;;4970029;28;21501;-76
2022/07/28 04:46:29;;;;;;;7.30;3.17;;;16.90;90.30;;;;;;4966154;28;20114;-71
2022/07/28 04:48:56;;;;;;;3.88;3.47;;;17.00;90.30;;;;;;4961957;28;20085;-71
2022/07/28 04:51:22;;;;;;;5.90;3.25;;;17.00;90.20;;;;;;4966156;28;20022;-72
2022/07/28 04:53:47;;;;;;;9.82;3.28;;;17.10;90.30;;;;;;4965865;28;20549;-72
2022/07/28 04:56:13;;;;;;;7.95;3.15;;;17.20;90.20;;;;;;4964373;28;20038;-71
2022/07/28 04:58:39;;;;;;;5.13;3.05;;;17.40;90.00;;;;;;4962652;28;20403;-72
2022/07/28 05:01:04;;;;;;;8.77;3.58;;;17.60;89.60;;;;;;4965914;28;20026;-71
2022/07/28 05:03:30;;;;;;;6.63;3.50;;;18.00;89.40;;;;;;4960281;28;20035;-72
2022/07/28 05:05:56;;;;;;;4.68;3.40;;;18.20;87.80;;;;;;4960164;28;20542;-71
2022/07/28 05:08:23;;;;;;;8.40;3.33;;;18.40;87.00;;;;;;4966509;28;20026;-74
2022/07/28 05:10:48;;;;;;;11.57;3.47;;;18.30;87.00;;;;;;4966150;28;20088;-75
2022/07/28 05:13:14;;;;;;;5.43;2.88;;;18.40;86.90;;;;;;4966447;28;20026;-74
2022/07/28 05:15:39;;;;;;;7.57;3.20;;;18.40;86.80;;;;;;4966204;28;20041;-75
2022/07/28 05:18:06;;;;;;;7.57;3.50;;;18.40;86.60;;;;;;4962723;28;20034;-75
2022/07/28 05:20:32;;;;;;;6.43;3.25;;;18.50;86.60;;;;;;4967791;28;20027;-71
2022/07/28 05:22:57;;;;;;;5.00;3.20;;;18.60;86.60;;;;;;4968502;28;20023;-75
2022/07/28 05:25:24;;;;;;;8.40;3.40;;;18.60;86.30;;;;;;4967528;28;20359;-74
2022/07/28 05:27:51;;;;;;;7.40;3.67;;;18.80;86.00;;;;;;4962324;28;20041;-75
2022/07/28 05:30:18;;;;;;;5.32;3.38;;;18.90;85.40;;;;;;4967512;28;20035;-74
2022/07/28 05:32:44;;;;;;;10.50;3.33;;;19.00;84.90;;;;;;4972840;28;20031;-76
2022/07/28 05:35:10;;;;;;;9.23;3.00;;;19.10;84.40;;;;;;4967921;28;20039;-76
2022/07/28 05:37:36;;;;;;;6.60;3.05;;;19.20;83.70;;;;;;4970718;28;20035;-76
2022/07/28 05:40:07;;;;;;;5.57;3.10;;;19.30;82.80;;;;;;4971572;28;20035;-76
2022/07/28 05:42:34;;;;;;;5.50;2.83;;;19.30;82.60;;;;;;4966976;28;20089;-76
2022/07/28 05:45:04;;;;;;;11.70;3.85;;;19.40;81.90;;;;;;4971094;28;20463;-76
2022/07/28 05:47:30;;;;;;;7.95;2.80;;;19.50;81.30;;;;;;4973279;28;20019;-76
2022/07/28 05:50:00;;;;;;;5.15;2.75;;;19.60;81.10;;;;;;4971937;28;20069;-76
2022/07/28 05:52:27;;;;;;;7.10;2.67;;;19.70;80.80;;;;;;4970952;28;20107;-72
2022/07/28 05:54:53;;;;;;;2.95;2.30;;;19.80;80.50;;;;;;4969906;28;20105;-76
2022/07/28 05:57:19;;;;;;;5.03;2.30;;;19.80;80.30;;;;;;4974569;28;20109;-76
2022/07/28 05:59:44;;;;;;;3.70;2.67;;;19.90;80.40;;;;;;4971067;28;20057;-74
2022/07/28 06:02:10;;;;;;;5.95;3.03;;;20.00;80.10;;;;;;4973577;28;20042;-73
2022/07/28 06:04:36;;;;;;;5.53;2.42;;;20.20;79.80;;;;;;4972567;28;20037;-75
2022/07/28 06:07:01;;;;;;;4.90;3.13;;;20.20;79.60;;;;;;4970799;28;20089;-74
2022/07/28 06:09:27;;;;;;;7.03;2.80;;;20.40;79.10;;;;;;4972872;28;21242;-76
2022/07/28 06:11:52;;;;;;;8.95;3.17;;;20.40;78.90;;;;;;4970550;28;20042;-75
2022/07/28 06:14:18;;;;;;;5.55;2.80;;;20.40;78.50;;;;;;4966769;28;20031;-76
2022/07/28 06:16:44;;;;;;;7.68;2.97;;;20.50;78.60;;;;;;4960648;28;20463;-75
2022/07/28 06:19:09;;;;;;;6.68;2.60;;;20.60;79.20;;;;;;4963327;28;20510;-76
2022/07/28 06:21:35;;;;;;;11.27;2.85;;;20.80;78.10;;;;;;4963143;28;20027;-76
2022/07/28 06:24:01;;;;;;;5.85;3.00;;;20.80;77.70;;;;;;4968810;28;20110;-70
2022/07/28 06:26:26;;;;;;;9.65;3.15;;;20.90;77.30;;;;;;4964579;28;20110;-74
2022/07/28 06:28:52;;;;;;;5.13;2.58;;;20.80;77.50;;;;;;4962599;28;20270;-73
2022/07/28 06:31:18;;;;;;;6.72;2.80;;;20.90;77.40;;;;;;4964884;28;20032;-74
2022/07/28 06:33:43;;;;;;;5.47;3.50;;;20.80;77.30;;;;;;4966494;28;20463;-74
2022/07/28 06:36:09;;;;;;;9.93;3.05;;;20.80;77.40;;;;;;4964571;28;20492;-74
2022/07/28 06:38:35;;;;;;;6.78;2.67;;;20.80;77.60;;;;;;4965839;28;20027;-75
2022/07/28 06:41:00;;;;;;;8.82;3.05;;;20.70;77.60;;;;;;4962579;28;20739;-74
2022/07/28 06:43:26;;;;;;;7.13;2.90;;;20.70;77.80;;;;;;4962440;28;20032;-75
2022/07/28 06:45:52;;;;;;;6.47;3.05;;;20.70;78.10;;;;;;4961210;28;20415;-75
2022/07/28 06:48:18;;;;;;;5.82;2.75;;;20.60;78.30;;;;;;4963398;28;20023;-75
2022/07/28 06:50:47;;;;;;;6.57;3.00;;;20.60;78.50;;;;;;4958770;28;20481;-75
2022/07/28 06:53:13;;;;;;;8.82;3.53;;;20.70;78.70;;;;;;4963571;28;20419;-75
2022/07/28 06:55:38;;;;;;;8.02;3.42;;;20.70;78.60;;;;;;4907128;28;20047;-76
2022/07/28 06:58:04;;;;;;;7.38;3.33;;;20.70;78.80;;;;;;4957073;28;20095;-75
2022/07/28 07:00:30;;;;;;;5.93;3.20;;;20.70;79.00;;;;;;4962657;28;21147;-77
2022/07/28 07:02:55;;;;;;;5.28;3.22;;;20.70;79.20;;;;;;4964515;28;20027;-76
2022/07/28 07:05:21;;;;;;;5.05;2.80;;;20.70;79.30;;;;;;4968353;28;20035;-76
2022/07/28 07:07:47;;;;;;;9.57;3.58;;;20.60;79.40;;;;;;4969421;28;20031;-75
2022/07/28 07:10:13;;;;;;;7.57;3.58;;;20.70;79.60;;;;;;4963044;28;20045;-76
2022/07/28 07:12:38;;;;;;;7.35;3.28;;;20.60;79.60;;;;;;4965292;28;20031;-77
2022/07/28 07:15:05;;;;;;;9.35;3.35;;;20.70;79.80;;;;;;4967000;28;20030;-77
2022/07/28 07:17:36;;;;;;;7.75;3.80;;;20.60;79.80;;;;;;4965194;28;20044;-75
2022/07/28 07:20:02;;;;;;;5.85;3.28;;;20.60;80.20;;;;;;4966691;28;20042;-75
2022/07/28 07:22:28;;;;;;;9.48;3.83;;;20.60;80.30;;;;;;4961623;28;20122;-75
2022/07/28 07:24:54;;;;;;;5.15;3.00;;;20.60;80.40;;;;;;4961241;28;20138;-76
2022/07/28 07:27:20;;;;;;;4.55;3.30;;;20.60;80.60;;;;;;4958839;28;20495;-75
2022/07/28 07:29:45;;;;;;;7.68;3.35;;;20.50;80.70;;;;;;4962840;28;20034;-75
2022/07/28 07:32:11;;;;;;;10.45;4.13;;;20.50;81.00;;;;;;4955674;28;20061;-76
2022/07/28 07:34:38;;;;;;;7.63;4.30;;;20.50;80.90;;;;;;4964139;28;20041;-75
2022/07/28 07:37:05;;;;;;;8.20;4.03;;;20.50;81.30;;;;;;4961787;28;20027;-75
2022/07/28 07:39:30;;;;;;;5.97;3.42;;;20.60;81.40;;;;;;4960425;28;20480;-76
2022/07/28 07:41:56;;;;;;;6.15;3.70;;;20.60;81.50;;;;;;4962326;28;20042;-75
2022/07/28 07:44:22;;;;;;;7.60;3.58;;;20.70;81.80;;;;;;4959252;28;20087;-75
2022/07/28 07:46:47;;;;;;;11.70;4.72;;;20.70;81.80;;;;;;4963244;28;20450;-75
2022/07/28 07:49:15;;;;;;;10.38;4.47;;;20.80;81.90;;;;;;4957815;28;20471;-78
2022/07/28 07:51:41;;;;;;;7.60;4.30;;;20.90;82.00;;;;;;4956132;28;20399;-76
2022/07/28 07:54:07;;;;;;;8.98;4.40;;;21.00;82.00;;;;;;4959959;28;20018;-74
2022/07/28 07:56:32;;;;;;;6.10;4.20;;;21.00;81.90;;;;;;4960652;28;20542;-75
2022/07/28 07:58:58;;;;;;;10.32;3.92;;;21.10;81.90;;;;;;4962889;28;20468;-74
2022/07/28 08:01:24;;;;;;;7.28;4.28;;;21.10;82.00;;;;;;4959799;28;20035;-74
2022/07/28 08:03:50;;;;;;;7.95;4.60;;;21.10;82.10;;;;;;4955511;28;20042;-74
2022/07/28 08:06:15;;;;;;;10.02;4.35;;;21.30;82.20;;;;;;4961693;28;20423;-74
2022/07/28 08:08:41;;;;;;;5.28;4.45;;;21.30;82.00;;;;;;4958031;28;20027;-75
2022/07/28 08:11:07;;;;;;;8.10;4.40;;;21.40;81.80;;;;;;4959800;28;20034;-74
2022/07/28 08:13:33;;;;;;;11.20;4.63;;;21.40;82.50;;;;;;4958831;28;20050;-75
2022/07/28 08:15:58;;;;;;;8.55;4.47;;;21.50;82.00;;;;;;4960940;28;20026;-75
2022/07/28 08:18:24;;;;;;;8.63;4.80;;;21.60;82.00;;;;;;4959512;28;20062;-76
2022/07/28 08:20:50;;;;;;;8.45;4.60;;;21.60;82.00;;;;;;4960721;28;20120;-76
2022/07/28 08:23:15;;;;;;;8.38;5.13;;;21.60;82.00;;;;;;4959000;28;20066;-74
2022/07/28 08:25:43;;;;;;;7.60;4.78;;;21.60;82.10;;;;;;4993142;23;20045;-77
2022/07/28 08:28:08;;;;;;;8.45;5.57;;;21.70;82.10;;;;;;4999922;28;20076;-76
2022/07/28 08:30:34;;;;;;;8.50;4.88;;;21.80;82.10;;;;;;5009915;28;20125;-76
2022/07/28 08:33:01;;;;;;;9.05;4.40;;;21.90;82.10;;;;;;4985702;28;20027;-74
2022/07/28 08:35:27;;;;;;;9.30;4.75;;;22.00;82.00;;;;;;4988037;28;20031;-75
2022/07/28 08:37:53;;;;;;;8.32;4.70;;;22.00;81.70;;;;;;4989767;28;20061;-75
2022/07/28 08:40:19;;;;;;;8.82;4.55;;;22.20;81.60;;;;;;5006897;28;20399;-74
2022/07/28 08:43:17;;;;;;;11.05;5.47;;;22.20;81.50;;;;;;4986171;28;20038;-75
2022/07/28 08:45:47;;;;;;;5.95;4.78;;;22.20;81.60;;;;;;4991434;28;20026;-76
2022/07/28 08:48:14;;;;;;;8.25;4.90;;;22.30;81.50;;;;;;4994794;28;20022;-76
2022/07/28 08:50:42;;;;;;;6.30;5.10;;;22.40;81.40;;;;;;4993434;28;20493;-76
2022/07/28 08:53:09;;;;;;;6.63;4.97;;;22.40;81.40;;;;;;4992172;28;20022;-76
2022/07/28 08:55:35;;;;;;;5.90;4.32;;;22.50;81.50;;;;;;4992122;28;20023;-74
2022/07/28 08:58:03;;;;;;;10.05;5.30;;;22.60;81.30;;;;;;4984466;28;20161;-76
2022/07/28 09:00:28;;;;;;;9.10;4.65;;;22.60;81.20;;;;;;4991948;28;20030;-75
2022/07/28 09:02:54;;;;;;;8.23;5.32;;;22.80;81.30;;;;;;4996331;28;20030;-75
2022/07/28 09:05:21;;;;;;;8.60;4.45;;;22.80;81.10;;;;;;4993337;28;20527;-74
2022/07/28 09:07:53;;;;;;;9.65;4.68;;;22.90;81.10;;;;;;4988351;28;20027;-76
2022/07/28 09:10:19;;;;;;;6.30;4.78;;;23.00;81.00;;;;;;5000502;28;20014;-75
2022/07/28 09:12:45;;;;;;;7.70;4.50;;;23.10;80.90;;;;;;4992701;28;20030;-75
2022/07/28 09:15:12;;;;;;;9.05;5.05;;;23.20;80.80;;;;;;4995620;28;20394;-74
2022/07/28 09:17:39;;;;;;;8.52;5.07;;;23.20;80.90;;;;;;4996185;28;20030;-75
2022/07/28 09:20:06;;;;;;;7.03;4.55;;;23.30;80.70;;;;;;4996906;28;20038;-75
2022/07/28 09:22:32;;;;;;;10.43;5.25;;;23.30;80.60;;;;;;5002492;28;20495;-74
2022/07/28 09:25:01;;;;;;;6.72;5.43;;;23.40;80.40;;;;;;4977488;28;20058;-75
2022/07/28 09:27:26;;;;;;;8.32;5.07;;;23.40;80.30;;;;;;4986267;28;20030;-75
2022/07/28 09:29:59;;;;;;;9.27;5.05;;;23.60;80.60;;;;;;5013063;28;20045;-75
2022/07/28 09:32:26;;;;;;;6.70;5.50;;;23.60;80.10;;;;;;5011777;28;20031;-75
2022/07/28 09:34:51;;;;;;;7.63;5.50;;;23.70;80.00;;;;;;4996758;28;20038;-75
2022/07/28 09:37:20;;;;;;;9.23;5.28;;;23.70;80.20;;;;;;4988988;28;20035;-74
2022/07/28 09:39:47;;;;;;;12.43;6.05;;;23.70;80.30;;;;;;4992984;28;20035;-75
2022/07/28 09:42:13;;;;;;;8.13;4.88;;;23.80;80.50;;;;;;4996346;28;20368;-76
2022/07/28 09:44:39;;;;;;;7.45;5.03;;;23.80;80.30;;;;;;5010370;28;20022;-75
2022/07/28 09:47:31;;;;;;;9.60;5.15;;;23.90;80.10;;;;;;4987061;28;20081;-76
2022/07/28 09:49:57;;;;;;;7.45;5.22;;;24.00;79.80;;;;;;4981238;28;20033;-77
2022/07/28 09:52:29;;;;;;;8.95;5.50;;;24.20;79.20;;;;;;4991751;28;20037;-77
2022/07/28 09:55:03;;;;;;;8.07;4.88;;;24.30;78.80;;;;;;4989584;28;20034;-76
2022/07/28 09:57:30;;;;;;;8.27;5.07;;;24.40;78.70;;;;;;4994457;28;20092;-77
2022/07/28 09:59:56;;;;;;;7.10;4.90;;;24.50;78.70;;;;;;4988328;28;20046;-77
2022/07/28 10:02:23;;;;;;;5.95;5.18;;;24.60;78.40;;;;;;4990564;28;20026;-77
2022/07/28 10:04:51;;;;;;;8.35;5.63;;;24.60;78.30;;;;;;4983323;28;20084;-77
2022/07/28 10:07:17;;;;;;;7.22;4.82;;;24.70;78.00;;;;;;4981742;28;20030;-77
2022/07/28 10:09:55;;;;;;;7.20;5.65;;;24.90;77.70;;;;;;4984808;28;20036;-77
2022/07/28 10:12:23;;;;;;;10.00;5.43;;;24.90;77.30;;;;;;4980738;28;20538;-77
2022/07/28 10:14:54;;;;;;;9.68;5.25;;;25.00;77.20;;;;;;4986334;28;20444;-76
2022/07/28 10:17:31;;;;;;;7.50;4.78;;;25.10;76.80;;;;;;4982366;28;20158;-74
2022/07/28 10:20:02;;;;;;;8.80;5.30;;;25.20;76.30;;;;;;4981039;28;20040;-74
2022/07/28 10:22:37;;;;;;;6.43;4.63;;;25.30;75.90;;;;;;4978788;28;20398;-74
2022/07/28 10:25:14;;;;;;;10.32;4.80;;;25.30;75.50;;;;;;4982921;28;20030;-74
2022/07/28 10:27:41;;;;;;;11.80;6.25;;;25.40;75.70;;;;;;4980541;28;20030;-74
2022/07/28 10:30:07;;;;;;;11.35;4.75;;;25.50;76.00;;;;;;4998054;28;20026;-73
2022/07/28 10:32:40;;;;;;;6.25;4.88;;;25.50;75.70;;;;;;4980696;28;20038;-73
2022/07/28 10:35:14;;;;;;;7.65;4.38;;;25.60;75.10;;;;;;4994182;28;20517;-74
2022/07/28 10:37:52;;;;;;;6.00;5.00;;;25.70;74.50;;;;;;4984980;28;20547;-75
2022/07/28 10:40:23;;;;;;;10.45;4.70;;;25.80;74.40;;;;;;4977047;28;20034;-74
2022/07/28 10:42:50;;;;;;;6.03;4.90;;;25.90;74.20;;;;;;4981708;28;20030;-74
2022/07/28 10:45:16;;;;;;;6.88;4.60;;;26.00;74.10;;;;;;4981883;28;20103;-75
2022/07/28 10:47:44;;;;;;;7.22;4.55;;;26.10;74.00;;;;;;4980413;28;20081;-72
2022/07/28 10:50:09;;;;;;;9.85;4.90;;;26.20;74.00;;;;;;4978952;28;20034;-71
2022/07/28 10:52:37;;;;;;;8.80;4.47;;;26.20;73.60;;;;;;4979682;28;20080;-72
2022/07/28 10:55:33;;;;;;;6.80;4.60;;;26.30;73.70;;;;;;4980805;28;20030;-73
2022/07/28 10:58:22;;;;;;;7.43;4.78;;;26.30;73.00;;;;;;4977268;28;20559;-72
2022/07/28 11:00:50;;;;;;;7.38;4.78;;;26.50;73.00;;;;;;4974140;28;20069;-75
2022/07/28 11:03:36;;;;;;;8.20;4.30;;;26.60;73.10;;;;;;4977139;28;20033;-72
2022/07/28 11:06:29;;;;;;;6.75;4.18;;;26.70;72.10;;;;;;4986344;28;20046;-74
2022/07/28 11:08:57;;;;;;;6.15;4.25;;;26.80;71.90;;;;;;4977993;28;20027;-73
2022/07/28 11:11:51;;;;;;;10.82;4.97;;;27.00;72.10;;;;;;4981670;28;20033;-74
2022/07/28 11:14:23;;;;;;;8.65;4.00;;;27.10;71.50;;;;;;4982395;28;20113;-73
2022/07/28 11:17:10;;;;;;;5.43;3.42;;;27.20;70.20;;;;;;4983643;28;20053;-74
2022/07/28 11:19:44;;;;;;;5.13;3.00;;;27.20;68.70;;;;;;4979108;28;20026;-74
2022/07/28 11:22:13;;;;;;;7.32;3.25;;;27.30;63.20;;;;;;4980555;28;20041;-74
2022/07/28 11:24:57;;;;;;;7.80;3.42;;;27.40;64.20;;;;;;4981328;28;20434;-73
2022/07/28 11:27:50;;;;;;;5.72;3.25;;;27.50;64.30;;;;;;4979691;28;20030;-74
2022/07/28 11:30:24;;;;;;;4.82;3.50;;;27.60;63.70;;;;;;4984049;28;20030;-73
2022/07/28 11:32:50;;;;;;;3.45;2.45;;;27.70;63.40;;;;;;4979290;28;20034;-72
2022/07/28 11:35:17;;;;;;;4.30;3.15;;;27.70;62.10;;;;;;4982332;28;20034;-73
2022/07/28 11:38:01;;;;;;;3.08;2.60;;;27.70;60.70;;;;;;4984209;28;20061;-73
2022/07/28 11:40:30;;;;;;;;;;;27.70;60.50;;;;;;4980906;28;20035;-74
2022/07/28 11:43:25;;;;;;;5.50;3.10;;;27.70;59.70;;;;;;4995110;28;19914;-74
2022/07/28 11:46:08;;;;;;;3.92;3.20;;;27.70;63.10;;;;;;4979681;28;20065;-72
2022/07/28 11:48:35;;;;;;;10.38;3.20;;;27.70;64.30;;;;;;4979448;28;20108;-73
2022/07/28 11:51:03;;;;;;;4.50;3.08;;;27.70;63.10;;;;;;4979294;28;20479;-72
2022/07/28 11:53:39;;;;;;;3.70;2.30;;;27.70;62.60;;;;;;4994852;28;20041;-73
2022/07/28 11:56:07;;;;;;;5.20;2.78;;;27.70;60.80;;;;;;4983738;28;20498;-71
2022/07/28 11:58:37;;;;;;;7.38;3.35;;;27.70;59.50;;;;;;4978911;28;20410;-72
2022/07/28 12:01:19;;;;;;;3.80;2.72;;;27.70;59.60;;;;;;4980483;28;20037;-72
2022/07/28 12:03:47;;;;;;;5.65;3.15;;;27.70;58.10;;;;;;4982364;28;20129;-72
2022/07/28 12:06:14;;;;;;;3.60;2.95;;;27.70;59.40;;;;;;4981802;28;20181;-73
2022/07/28 12:08:52;;;;;;;3.83;2.80;;;27.70;59.10;;;;;;4981557;28;20033;-74
2022/07/28 12:11:18;;;;;;;3.67;2.85;;;27.70;60.80;;;;;;4981122;28;23898;-74
2022/07/28 12:13:44;;;;;;;10.10;3.58;;;27.70;60.40;;;;;;4980533;28;20038;-75
2022/07/28 12:16:11;;;;;;;5.30;3.28;;;27.70;60.50;;;;;;4978558;28;20057;-75
2022/07/28 12:18:37;;;;;;;5.68;3.33;;;27.60;60.60;;;;;;4982715;28;20049;-72
2022/07/28 12:21:03;;;;;;;4.90;2.88;;;27.50;60.60;;;;;;4980494;28;20026;-72
2022/07/28 12:23:36;;;;;;;4.90;3.33;;;27.50;59.90;;;;;;4991908;28;20081;-74
2022/07/28 12:26:05;;;;;;;4.95;2.90;;;27.50;59.80;;;;;;4987647;28;20034;-75
2022/07/28 12:28:34;;;;;;;5.25;3.30;;;27.50;60.80;;;;;;4983739;28;20030;-74
2022/07/28 12:31:14;;;;;;;11.45;4.70;;;27.40;61.40;;;;;;4990248;28;20084;-74
2022/07/28 12:33:43;;;;;;;7.72;3.75;;;27.40;60.60;;;;;;4987119;28;20080;-76
2022/07/28 12:36:09;;;;;;;6.10;3.47;;;27.40;60.40;;;;;;4984273;28;21053;-76
2022/07/28 12:38:35;;;;;;;3.85;3.20;;;27.30;60.40;;;;;;4974898;28;20518;-73
2022/07/28 12:41:01;;;;;;;5.57;2.80;;;27.40;60.00;;;;;;4986086;28;20572;-73
2022/07/28 12:43:30;;;;;;;6.70;3.10;;;27.30;59.10;;;;;;4990128;28;20034;-75
2022/07/28 12:45:56;;;;;;;5.55;3.03;;;27.30;60.10;;;;;;4984348;28;20049;-75
2022/07/28 12:48:22;;;;;;;6.47;3.70;;;27.30;61.00;;;;;;4980703;28;20030;-71
2022/07/28 12:50:48;;;;;;;9.32;7.25;;;27.30;62.30;;;;;;4984363;28;20057;-73
2022/07/28 12:53:15;;;;;;;8.23;5.32;;;27.30;60.70;;;;;;4985892;28;20519;-75
2022/07/28 12:55:44;;;;;;;8.43;5.63;;;27.40;60.60;;;;;;4982518;28;20426;-76
2022/07/28 12:58:27;;;;;;;6.47;5.13;;;27.30;60.40;;;;;;4984126;28;20168;-79